Time;durP1;ratioP1;P1;durP2;ratioP2;P2;SDS_P1;SDS_P2;PMS_P1;PMS_P2;Temp;Humidity;BMP_temperature;BMP_pressure;BME280_temperature;BME280_humidity;BME280_pressure;Samples;Min_cycle;Max_cycle;Signal;HPM_P1;HPM_P2
2022/04/12 00:00:53;;;;;;;3.00;2.70;;;5.00;99.90;;;;;;5041626;28;20266;-53
2022/04/12 00:03:37;;;;;;;1.23;1.07;;;5.00;99.90;;;;;;5044274;28;20198;-55
2022/04/12 00:06:22;;;;;;;1.30;1.20;;;4.90;99.90;;;;;;5043947;28;20205;-51
2022/04/12 00:09:06;;;;;;;1.57;1.47;;;4.80;99.90;;;;;;5041359;28;20206;-54
2022/04/12 00:11:50;;;;;;;2.30;1.07;;;4.80;99.90;;;;;;5044591;28;20197;-55
2022/04/12 00:14:35;;;;;;;1.53;1.43;;;4.80;99.90;;;;;;5042130;28;20281;-59
2022/04/12 00:20:26;;;;;;;0.87;0.77;;;4.70;99.90;;;;;;5045556;28;20217;-58
2022/04/12 00:23:14;;;;;;;1.30;1.20;;;4.60;99.90;;;;;;5042049;28;20195;-59
2022/04/12 00:25:59;;;;;;;1.83;1.60;;;4.60;99.90;;;;;;5040916;28;20198;-53
2022/04/12 00:28:45;;;;;;;1.13;1.10;;;4.50;99.90;;;;;;5043856;28;20279;-49
2022/04/12 00:31:30;;;;;;;0.73;0.73;;;4.40;99.90;;;;;;5041140;28;20253;-58
2022/04/12 00:34:15;;;;;;;0.83;0.83;;;4.50;99.90;;;;;;5042570;28;20237;-52
2022/04/12 00:36:59;;;;;;;1.60;1.50;;;4.50;99.90;;;;;;5043835;28;20198;-52
2022/04/12 00:39:43;;;;;;;1.20;1.10;;;4.40;99.90;;;;;;5040725;28;20221;-54
2022/04/12 00:42:27;;;;;;;20.40;9.63;;;4.40;99.90;;;;;;5043794;28;20228;-56
2022/04/12 00:45:14;;;;;;;3.90;3.13;;;4.50;99.90;;;;;;5043066;28;20189;-59
2022/04/12 00:47:58;;;;;;;1.30;1.30;;;4.50;99.90;;;;;;5040957;28;20221;-52
2022/04/12 00:50:45;;;;;;;4.67;1.83;;;4.40;99.90;;;;;;5043755;28;20233;-54
2022/04/12 00:53:30;;;;;;;1.70;1.17;;;4.50;99.90;;;;;;5041455;28;20268;-59
2022/04/12 00:56:17;;;;;;;4.23;1.67;;;4.50;99.90;;;;;;5041348;28;20206;-55
2022/04/12 00:59:02;;;;;;;0.43;0.43;;;4.30;99.90;;;;;;5043642;28;20216;-51
2022/04/12 01:01:47;;;;;;;1.03;1.03;;;4.30;99.90;;;;;;5040702;28;20283;-53
2022/04/12 01:04:32;;;;;;;1.67;1.57;;;4.20;99.90;;;;;;5042544;28;20194;-53
2022/04/12 01:07:18;;;;;;;0.97;0.97;;;4.30;99.90;;;;;;5044803;28;20236;-58
2022/04/12 01:10:03;;;;;;;1.00;0.93;;;4.30;99.90;;;;;;5040952;28;20198;-49
2022/04/12 01:12:48;;;;;;;0.93;0.93;;;4.30;99.90;;;;;;5044142;28;20198;-54
2022/04/12 01:15:34;;;;;;;1.77;1.20;;;4.20;99.90;;;;;;5043156;28;20357;-58
2022/04/12 01:18:19;;;;;;;0.97;0.97;;;4.10;99.90;;;;;;5041066;28;20201;-48
2022/04/12 01:21:04;;;;;;;0.87;0.87;;;4.10;99.90;;;;;;5044521;28;20256;-54
2022/04/12 01:24:05;;;;;;;0.70;0.70;;;4.10;99.90;;;;;;5042115;28;20233;-59
2022/04/12 01:26:51;;;;;;;0.40;0.40;;;4.00;99.90;;;;;;5041442;28;20321;-52
2022/04/12 01:29:36;;;;;;;2.20;1.37;;;4.10;99.90;;;;;;5043546;28;20321;-55
2022/04/12 01:32:20;;;;;;;1.27;1.27;;;4.10;99.90;;;;;;5041747;28;20222;-58
2022/04/12 01:35:05;;;;;;;1.60;1.07;;;3.90;99.90;;;;;;5041463;28;20314;-52
2022/04/12 01:37:49;;;;;;;0.97;0.93;;;3.90;99.90;;;;;;5047692;28;20189;-48
2022/04/12 01:40:34;;;;;;;3.17;1.37;;;4.00;99.90;;;;;;5044583;28;20193;-56
2022/04/12 01:43:18;;;;;;;1.40;1.00;;;4.00;99.90;;;;;;5046993;28;20202;-54
2022/04/12 01:46:02;;;;;;;0.50;0.50;;;4.00;99.90;;;;;;5046736;28;20206;-48
2022/04/12 01:48:48;;;;;;;1.17;1.00;;;4.00;99.90;;;;;;5044356;28;20290;-47
2022/04/12 01:51:32;;;;;;;2.00;0.97;;;4.00;99.90;;;;;;5047561;28;20302;-52
2022/04/12 01:54:16;;;;;;;1.33;1.00;;;3.90;99.90;;;;;;5045994;28;20225;-49
2022/04/12 01:57:00;;;;;;;1.77;1.67;;;3.90;99.90;;;;;;5045276;28;20210;-46
2022/04/12 01:59:44;;;;;;;2.90;1.43;;;3.80;99.90;;;;;;5047392;28;20193;-51
2022/04/12 02:02:28;;;;;;;1.13;0.87;;;3.90;99.90;;;;;;5044837;28;20221;-58
2022/04/12 02:05:12;;;;;;;1.67;1.53;;;3.80;99.90;;;;;;5045314;28;20221;-51
2022/04/12 02:07:57;;;;;;;1.37;1.27;;;3.80;99.90;;;;;;5048089;28;20214;-53
2022/04/12 02:10:41;;;;;;;1.33;1.33;;;3.70;99.90;;;;;;5043854;28;20317;-47
2022/04/12 02:13:26;;;;;;;0.90;0.87;;;3.60;99.90;;;;;;5046651;28;20194;-52
2022/04/12 02:16:10;;;;;;;1.60;1.50;;;3.50;99.90;;;;;;5046158;28;20217;-52
2022/04/12 02:18:55;;;;;;;1.67;1.43;;;3.40;99.90;;;;;;5044625;28;20341;-52
2022/04/12 02:21:39;;;;;;;1.10;1.10;;;3.40;99.90;;;;;;5047596;28;20202;-51
2022/04/12 02:24:24;;;;;;;1.80;0.50;;;3.40;99.90;;;;;;5045424;28;20237;-56
2022/04/12 02:27:08;;;;;;;1.50;1.33;;;3.50;99.90;;;;;;5044629;28;20252;-49
2022/04/12 02:29:54;;;;;;;5.00;0.80;;;3.50;99.90;;;;;;5047140;28;20186;-47
2022/04/12 02:32:42;;;;;;;2.73;2.53;;;3.50;99.90;;;;;;5044073;28;20280;-58
2022/04/12 02:35:26;;;;;;;0.73;0.73;;;3.50;99.90;;;;;;5044729;28;20225;-52
2022/04/12 02:38:13;;;;;;;3.40;2.37;;;3.60;99.90;;;;;;5046773;28;20198;-53
2022/04/12 02:40:59;;;;;;;0.83;0.83;;;3.50;99.90;;;;;;5044145;28;20278;-53
2022/04/12 02:43:43;;;;;;;1.20;1.10;;;3.50;99.90;;;;;;5046250;28;20202;-52
2022/04/12 02:46:28;;;;;;;1.17;1.17;;;3.40;99.90;;;;;;5046076;28;20255;-55
2022/04/12 02:49:12;;;;;;;2.03;1.03;;;3.40;99.90;;;;;;5042744;28;20202;-54
2022/04/12 02:51:56;;;;;;;1.20;1.20;;;3.40;99.90;;;;;;5046348;28;20241;-49
2022/04/12 02:54:41;;;;;;;0.80;0.80;;;3.40;99.90;;;;;;5045062;28;20233;-57
2022/04/12 02:57:26;;;;;;;1.30;1.20;;;3.30;99.90;;;;;;5043652;28;20221;-53
2022/04/12 03:00:10;;;;;;;0.90;0.77;;;3.20;99.90;;;;;;5046418;28;20305;-54
2022/04/12 03:02:55;;;;;;;1.00;1.00;;;3.20;99.90;;;;;;5044239;28;20633;-58
2022/04/12 03:05:39;;;;;;;5.10;1.50;;;3.10;99.90;;;;;;5044697;28;20301;-47
2022/04/12 03:08:24;;;;;;;1.37;1.27;;;3.10;99.90;;;;;;5046217;28;20277;-58
2022/04/12 03:11:08;;;;;;;0.90;0.90;;;3.20;99.90;;;;;;5043003;28;20361;-54
2022/04/12 03:13:53;;;;;;;1.00;1.00;;;3.20;99.90;;;;;;5045139;28;20257;-52
2022/04/12 03:16:38;;;;;;;1.20;1.10;;;3.20;99.90;;;;;;5045449;28;20213;-56
2022/04/12 03:19:22;;;;;;;0.93;0.93;;;3.10;99.90;;;;;;5042769;28;20194;-49
2022/04/12 03:22:07;;;;;;;1.37;1.00;;;3.00;99.90;;;;;;5046665;28;20201;-50
2022/04/12 03:24:51;;;;;;;1.07;0.70;;;3.00;99.90;;;;;;5044689;28;20261;-55
2022/04/12 03:27:36;;;;;;;0.83;0.83;;;2.90;99.90;;;;;;5044051;28;20197;-57
2022/04/12 03:30:20;;;;;;;1.40;0.83;;;2.90;99.90;;;;;;5045435;28;20198;-51
2022/04/12 03:33:05;;;;;;;0.83;0.83;;;2.90;99.90;;;;;;5043104;28;20254;-51
2022/04/12 03:35:50;;;;;;;0.77;0.77;;;2.80;99.90;;;;;;5043115;28;20233;-48
2022/04/12 03:38:35;;;;;;;0.77;0.77;;;2.90;99.90;;;;;;5045753;28;20339;-55
2022/04/12 03:41:23;;;;;;;0.83;0.83;;;2.70;99.90;;;;;;5042264;28;20265;-55
2022/04/12 03:44:08;;;;;;;3.83;0.80;;;2.70;99.90;;;;;;5044529;28;20190;-53
2022/04/12 03:46:52;;;;;;;1.03;0.67;;;2.70;99.90;;;;;;5044805;28;20199;-57
2022/04/12 03:49:36;;;;;;;1.00;1.00;;;2.70;99.90;;;;;;5042109;28;20274;-48
2022/04/12 03:52:21;;;;;;;1.33;1.00;;;2.70;99.90;;;;;;5045521;28;20202;-55
2022/04/12 03:55:06;;;;;;;2.40;1.03;;;2.70;99.90;;;;;;5044601;28;20280;-56
2022/04/12 03:57:50;;;;;;;1.67;1.57;;;2.60;99.90;;;;;;5042689;28;20343;-51
2022/04/12 04:00:35;;;;;;;8.57;1.30;;;2.60;99.90;;;;;;5045065;28;20337;-54
2022/04/12 04:03:19;;;;;;;1.10;1.00;;;2.60;99.90;;;;;;5042384;28;20248;-54
2022/04/12 04:06:05;;;;;;;3.00;0.80;;;2.70;99.90;;;;;;5043201;28;20225;-54
2022/04/12 04:08:49;;;;;;;1.37;0.97;;;2.60;99.90;;;;;;5044979;28;20261;-53
2022/04/12 04:11:38;;;;;;;1.23;1.13;;;2.50;99.90;;;;;;5041263;28;20190;-51
2022/04/12 04:14:22;;;;;;;57.43;26.53;;;2.50;99.90;;;;;;5043888;28;20284;-56
2022/04/12 04:17:07;;;;;;;5.43;3.93;;;2.60;99.90;;;;;;5043918;28;20206;-51
2022/04/12 04:19:51;;;;;;;1.27;1.27;;;2.80;99.90;;;;;;5041271;28;20194;-49
2022/04/12 04:22:35;;;;;;;0.77;0.77;;;2.90;99.90;;;;;;5045078;28;20252;-51
2022/04/12 04:25:19;;;;;;;1.20;1.17;;;2.90;99.90;;;;;;5043063;28;20221;-57
2022/04/12 04:28:05;;;;;;;1.27;1.17;;;3.00;99.90;;;;;;5042231;28;20252;-56
2022/04/12 04:30:50;;;;;;;1.17;1.17;;;3.00;99.90;;;;;;5044295;28;20225;-49
2022/04/12 04:33:35;;;;;;;2.43;2.10;;;2.90;99.90;;;;;;5041915;28;20209;-50
2022/04/12 04:36:19;;;;;;;0.80;0.80;;;3.00;99.90;;;;;;5042623;28;20256;-51
2022/04/12 04:39:03;;;;;;;1.00;1.00;;;2.90;99.90;;;;;;5043820;28;20202;-50
2022/04/12 04:41:48;;;;;;;2.30;1.10;;;2.80;99.90;;;;;;5038894;28;20290;-49
2022/04/12 04:44:32;;;;;;;1.90;1.80;;;2.80;99.90;;;;;;5042723;28;20190;-50
2022/04/12 04:47:17;;;;;;;3.17;1.20;;;2.70;99.90;;;;;;5038187;28;20245;-49
2022/04/12 04:50:01;;;;;;;3.47;1.57;;;2.70;99.90;;;;;;5035965;28;20282;-49
2022/04/12 04:52:46;;;;;;;1.03;0.90;;;2.80;99.90;;;;;;5040679;28;20241;-50
2022/04/12 04:55:32;;;;;;;12.93;1.33;;;2.60;99.90;;;;;;5039566;28;20274;-51
2022/04/12 04:58:16;;;;;;;0.93;0.70;;;2.60;99.90;;;;;;5040752;28;20225;-51
2022/04/12 05:01:00;;;;;;;1.50;1.27;;;2.50;99.90;;;;;;5042531;28;20256;-50
2022/04/12 05:03:44;;;;;;;0.80;0.80;;;2.60;99.90;;;;;;5040395;28;20190;-57
2022/04/12 05:06:29;;;;;;;2.33;0.83;;;2.60;99.90;;;;;;5039484;28;20241;-52
2022/04/12 05:09:13;;;;;;;1.67;1.57;;;2.70;99.90;;;;;;5041624;28;20244;-55
2022/04/12 05:11:57;;;;;;;0.90;0.90;;;2.80;99.90;;;;;;5044791;28;20236;-55
2022/04/12 05:14:42;;;;;;;1.93;1.47;;;2.90;99.90;;;;;;5048982;28;20305;-47
2022/04/12 05:17:28;;;;;;;0.97;0.97;;;2.90;99.90;;;;;;5046709;28;20241;-52
2022/04/12 05:20:13;;;;;;;0.90;0.90;;;3.00;99.90;;;;;;5045517;28;20332;-53
2022/04/12 05:22:57;;;;;;;1.63;1.07;;;2.90;99.90;;;;;;5048833;28;20198;-54
2022/04/12 05:25:42;;;;;;;4.97;1.13;;;3.00;99.90;;;;;;5047659;28;20197;-60
2022/04/12 05:28:26;;;;;;;1.60;1.50;;;2.90;99.90;;;;;;5046653;28;20269;-51
2022/04/12 05:31:10;;;;;;;1.70;1.40;;;2.90;99.90;;;;;;5047648;28;20193;-51
2022/04/12 05:33:55;;;;;;;0.93;0.87;;;3.10;99.90;;;;;;5044591;28;20206;-45
2022/04/12 05:36:39;;;;;;;2.67;2.47;;;3.20;99.90;;;;;;5047142;28;20240;-46
2022/04/12 05:39:23;;;;;;;5.03;1.57;;;3.30;99.90;;;;;;5049283;28;20194;-54
2022/04/12 05:42:07;;;;;;;3.10;1.47;;;3.30;99.90;;;;;;5040896;28;20191;-45
2022/04/12 05:44:51;;;;;;;1.80;1.67;;;3.40;99.90;;;;;;5047088;28;20240;-42
2022/04/12 05:47:42;;;;;;;2.73;2.10;;;3.50;99.90;;;;;;5047649;28;20185;-52
2022/04/12 05:50:27;;;;;;;1.33;1.33;;;3.50;99.90;;;;;;5061017;28;20234;-53
2022/04/12 05:53:11;;;;;;;1.77;1.57;;;3.60;99.90;;;;;;5048072;28;20240;-50
2022/04/12 05:55:56;;;;;;;2.23;1.63;;;3.70;99.90;;;;;;5046590;28;20299;-48
2022/04/12 05:58:40;;;;;;;2.73;1.87;;;3.70;99.90;;;;;;5047638;28;20193;-55
2022/04/12 06:01:24;;;;;;;0.80;0.80;;;3.90;99.90;;;;;;5049083;28;20185;-46
2022/04/12 06:04:09;;;;;;;0.90;0.90;;;3.90;99.90;;;;;;5044562;28;20186;-52
2022/04/12 06:06:54;;;;;;;1.37;1.37;;;4.10;99.90;;;;;;5046456;28;20194;-54
2022/04/12 06:09:38;;;;;;;1.20;1.07;;;4.20;99.90;;;;;;5049656;28;20182;-48
2022/04/12 06:12:23;;;;;;;0.60;0.60;;;4.30;99.90;;;;;;5044154;28;20194;-56
2022/04/12 06:15:09;;;;;;;2.60;1.77;;;4.40;99.90;;;;;;5047450;28;20261;-62
2022/04/12 06:17:53;;;;;;;2.47;1.43;;;4.50;99.90;;;;;;5047484;28;20263;-51
2022/04/12 06:20:38;;;;;;;0.60;0.60;;;4.40;99.90;;;;;;5045989;28;20241;-58
2022/04/12 06:23:23;;;;;;;1.50;1.40;;;4.50;99.90;;;;;;5044503;28;20202;-52
2022/04/12 06:26:07;;;;;;;1.00;0.90;;;4.70;99.90;;;;;;5042185;28;20203;-65
2022/04/12 06:28:52;;;;;;;2.70;1.13;;;4.80;99.90;;;;;;5039935;28;20277;-55
2022/04/12 06:31:36;;;;;;;2.17;1.63;;;4.90;99.90;;;;;;5045292;28;20220;-60
2022/04/12 06:34:20;;;;;;;1.63;1.40;;;5.00;99.90;;;;;;5042816;28;20226;-53
2022/04/12 06:37:04;;;;;;;1.73;1.27;;;5.20;99.90;;;;;;5044588;28;20214;-48
2022/04/12 06:39:48;;;;;;;1.20;1.10;;;5.40;99.90;;;;;;5041018;28;20205;-48
2022/04/12 06:42:34;;;;;;;0.93;0.93;;;5.60;99.90;;;;;;5035981;28;20739;-46
2022/04/12 06:45:18;;;;;;;1.83;1.73;;;5.70;99.90;;;;;;5036979;28;20210;-51
2022/04/12 06:48:04;;;;;;;7.03;3.43;;;5.90;99.90;;;;;;5043266;28;20202;-43
2022/04/12 06:50:48;;;;;;;2.90;2.10;;;6.00;99.90;;;;;;5039666;28;20273;-42
2022/04/12 06:53:34;;;;;;;1.80;1.30;;;6.20;99.90;;;;;;5046331;28;20226;-42
2022/04/12 06:56:20;;;;;;;2.77;1.53;;;6.50;99.90;;;;;;5044351;28;20222;-46
2022/04/12 06:59:04;;;;;;;1.33;1.23;;;6.70;99.90;;;;;;5042315;28;20194;-50
2022/04/12 07:01:48;;;;;;;3.30;2.67;;;6.90;99.90;;;;;;5044751;28;20274;-49
2022/04/12 07:04:33;;;;;;;12.10;1.57;;;7.00;99.90;;;;;;5034331;28;20275;-42
2022/04/12 07:07:17;;;;;;;0.90;0.90;;;7.10;99.90;;;;;;5040680;28;20210;-47
2022/04/12 07:10:01;;;;;;;3.33;1.00;;;7.20;99.90;;;;;;5045367;28;20210;-52
2022/04/12 07:12:46;;;;;;;0.97;0.97;;;7.30;99.90;;;;;;5042213;28;20199;-48
2022/04/12 07:15:30;;;;;;;1.80;1.00;;;7.50;99.90;;;;;;5044504;28;20230;-44
2022/04/12 07:18:15;;;;;;;1.10;1.03;;;7.60;99.90;;;;;;5044722;28;20221;-42
2022/04/12 07:20:59;;;;;;;3.47;1.67;;;7.60;99.90;;;;;;5043340;28;20201;-53
2022/04/12 07:23:43;;;;;;;6.63;2.63;;;7.80;99.90;;;;;;5045674;28;20225;-45
2022/04/12 07:26:27;;;;;;;0.60;0.60;;;7.90;99.90;;;;;;5042483;28;20197;-44
2022/04/12 07:29:12;;;;;;;0.60;0.60;;;8.00;99.90;;;;;;5043953;28;20197;-43
2022/04/12 07:31:57;;;;;;;1.97;1.10;;;8.10;99.90;;;;;;5042903;28;20240;-46
2022/04/12 07:34:41;;;;;;;0.57;0.57;;;8.20;99.90;;;;;;5040730;28;20250;-52
2022/04/12 07:37:25;;;;;;;0.87;0.87;;;8.40;99.90;;;;;;5037327;28;20230;-45
2022/04/12 07:40:10;;;;;;;0.90;0.70;;;8.70;99.90;;;;;;5043200;28;20202;-46
2022/04/12 07:42:54;;;;;;;1.03;1.03;;;9.00;99.80;;;;;;5041978;28;20208;-52
2022/04/12 07:45:38;;;;;;;0.40;0.40;;;9.20;99.10;;;;;;5041722;28;20206;-56
2022/04/12 07:48:22;;;;;;;0.70;0.70;;;9.20;98.90;;;;;;5043754;28;20195;-60
2022/04/12 07:51:07;;;;;;;0.63;0.63;;;9.30;99.00;;;;;;5040972;28;20289;-58
2022/04/12 07:53:52;;;;;;;0.60;0.60;;;9.40;99.10;;;;;;5040868;28;20190;-61
2022/04/12 07:56:36;;;;;;;0.80;0.80;;;9.50;98.90;;;;;;5041294;28;20274;-66
2022/04/12 07:59:21;;;;;;;2.23;1.00;;;9.80;98.90;;;;;;5042383;28;20198;-54
2022/04/12 08:02:05;;;;;;;2.13;0.70;;;9.90;98.40;;;;;;5044754;28;20202;-56
2022/04/12 08:04:49;;;;;;;0.70;0.70;;;10.30;98.20;;;;;;5030691;28;20281;-53
2022/04/12 08:07:34;;;;;;;1.27;1.17;;;10.50;97.70;;;;;;5029194;28;20191;-56
2022/04/12 08:10:19;;;;;;;1.10;0.90;;;10.50;97.40;;;;;;5042529;28;20202;-58
2022/04/12 08:13:04;;;;;;;0.93;0.93;;;10.80;97.20;;;;;;5036372;28;20509;-58
2022/04/12 08:15:48;;;;;;;1.63;1.37;;;10.90;96.50;;;;;;5043254;28;20273;-52
2022/04/12 08:18:33;;;;;;;1.25;1.00;;;10.80;97.00;;;;;;5042429;28;20431;-54
2022/04/12 08:21:32;;;;;;;1.37;1.10;;;11.00;96.50;;;;;;5041684;28;20194;-47
2022/04/12 08:24:16;;;;;;;0.53;0.50;;;10.90;96.30;;;;;;5043989;28;20280;-68
2022/04/12 08:27:01;;;;;;;0.90;0.90;;;11.40;96.10;;;;;;5042172;28;20198;-64
2022/04/12 08:29:46;;;;;;;0.97;0.87;;;11.40;96.10;;;;;;5042119;28;20190;-53
2022/04/12 08:32:30;;;;;;;4.80;1.00;;;11.80;95.00;;;;;;5044614;28;20290;-48
2022/04/12 08:35:14;;;;;;;1.07;1.00;;;11.80;94.30;;;;;;5031518;28;20300;-65
2022/04/12 08:38:00;;;;;;;1.13;0.73;;;12.20;94.10;;;;;;5033303;28;20245;-46
2022/04/12 08:40:45;;;;;;;1.23;0.80;;;12.20;93.60;;;;;;5033975;28;20202;-51
2022/04/12 08:43:29;;;;;;;0.70;0.70;;;12.50;92.60;;;;;;5032553;28;20206;-47
2022/04/12 08:46:14;;;;;;;0.63;0.63;;;12.80;92.40;;;;;;5029116;28;20195;-41
2022/04/12 08:48:59;;;;;;;0.67;0.60;;;12.60;92.70;;;;;;5033715;28;20209;-50
2022/04/12 08:51:46;;;;;;;0.70;0.70;;;12.90;92.60;;;;;;5031808;28;20276;-43
2022/04/12 08:54:32;;;;;;;1.40;1.00;;;13.00;92.60;;;;;;5037283;28;20348;-59
2022/04/12 08:57:16;;;;;;;0.80;0.80;;;12.90;92.50;;;;;;5030991;28;20204;-49
2022/04/12 09:00:05;;;;;;;0.90;0.80;;;12.70;92.90;;;;;;5030125;28;20246;-49
2022/04/12 09:02:57;;;;;;;1.47;1.37;;;13.10;92.70;;;;;;5032609;28;20194;-47
2022/04/12 09:05:42;;;;;;;1.10;0.60;;;13.60;92.10;;;;;;5028285;28;20195;-60
2022/04/12 09:08:31;;;;;;;0.70;0.70;;;13.50;92.00;;;;;;5034495;28;20257;-43
2022/04/12 09:11:17;;;;;;;1.77;1.00;;;13.80;91.20;;;;;;5032064;28;20201;-48
2022/04/12 09:14:01;;;;;;;0.83;0.83;;;13.60;91.40;;;;;;5033491;28;20251;-42
2022/04/12 09:16:46;;;;;;;0.80;0.80;;;13.70;91.70;;;;;;5030343;28;20310;-56
2022/04/12 09:19:57;;;;;;;3.37;1.60;;;13.80;91.50;;;;;;5033748;28;20189;-42
2022/04/12 09:22:42;;;;;;;1.37;0.90;;;14.20;90.80;;;;;;5031282;28;20186;-50
2022/04/12 09:25:26;;;;;;;0.60;0.60;;;14.70;89.20;;;;;;5029174;28;20277;-45
2022/04/12 09:28:11;;;;;;;0.60;0.60;;;15.20;87.50;;;;;;5030353;28;20201;-63
2022/04/12 09:30:59;;;;;;;0.60;0.60;;;16.10;83.70;;;;;;5029206;28;20202;-44
2022/04/12 09:33:45;;;;;;;1.00;0.60;;;15.90;85.20;;;;;;5033067;28;20203;-55
2022/04/12 09:36:34;;;;;;;0.60;0.60;;;16.00;83.50;;;;;;5028655;28;20261;-48
2022/04/12 09:39:21;;;;;;;1.00;0.90;;;16.80;82.50;;;;;;5031771;28;20284;-56
2022/04/12 09:42:07;;;;;;;0.73;0.73;;;17.10;79.40;;;;;;5036323;28;20273;-48
2022/04/12 09:45:06;;;;;;;1.10;1.00;;;17.50;79.10;;;;;;5026305;28;20253;-47
2022/04/12 09:47:57;;;;;;;4.15;2.42;;;17.10;79.70;;;;;;5025168;28;20284;-51
2022/04/12 09:50:41;;;;;;;3.43;1.63;;;17.00;79.10;;;;;;5035655;28;20285;-45
2022/04/12 09:53:38;;;;;;;1.27;1.27;;;18.10;77.50;;;;;;5027545;28;20246;-53
2022/04/12 09:56:29;;;;;;;1.13;1.02;;;17.90;76.60;;;;;;5021833;28;20648;-47
2022/04/12 09:59:14;;;;;;;1.40;1.25;;;18.20;74.90;;;;;;5034604;28;20203;-47
2022/04/12 10:02:00;;;;;;;1.10;0.98;;;18.50;74.90;;;;;;5029679;28;20187;-53
2022/04/12 10:04:44;;;;;;;1.73;1.30;;;19.10;73.10;;;;;;5030649;28;20194;-50
2022/04/12 10:07:32;;;;;;;0.85;0.85;;;18.40;73.40;;;;;;5039502;28;20182;-56
2022/04/12 10:10:19;;;;;;;0.82;0.82;;;19.00;71.70;;;;;;5034030;28;20279;-47
2022/04/12 10:13:04;;;;;;;1.35;1.25;;;19.60;70.50;;;;;;5033793;28;20206;-41
2022/04/12 10:15:49;;;;;;;4.53;2.03;;;19.70;69.70;;;;;;5027825;28;20234;-53
2022/04/12 10:18:34;;;;;;;2.17;2.08;;;18.70;71.80;;;;;;5023522;28;20202;-56
2022/04/12 10:21:19;;;;;;;2.28;1.50;;;18.50;72.60;;;;;;5034860;28;20198;-56
2022/04/12 10:24:06;;;;;;;1.60;1.30;;;18.80;72.60;;;;;;5033610;28;20214;-49
2022/04/12 10:26:51;;;;;;;1.48;1.20;;;19.10;72.40;;;;;;5033393;28;20199;-46
2022/04/12 10:29:35;;;;;;;1.70;0.95;;;20.00;70.30;;;;;;5030809;28;20221;-59
2022/04/12 10:32:20;;;;;;;0.88;0.88;;;20.10;68.70;;;;;;5033343;28;20275;-58
2022/04/12 10:35:04;;;;;;;2.67;1.73;;;20.70;67.00;;;;;;5022029;28;20218;-56
2022/04/12 10:37:52;;;;;;;4.30;3.13;;;21.00;65.40;;;;;;5035218;28;20283;-58
2022/04/12 10:40:41;;;;;;;2.45;1.52;;;20.90;65.20;;;;;;5034150;28;20231;-56
2022/04/12 10:43:38;;;;;;;2.03;1.92;;;20.60;65.10;;;;;;5036386;28;20245;-55
2022/04/12 10:46:22;;;;;;;1.50;1.40;;;20.90;65.60;;;;;;5035241;28;20271;-49
2022/04/12 10:49:06;;;;;;;2.22;1.50;;;22.00;62.70;;;;;;5030928;28;20249;-53
2022/04/12 10:52:00;;;;;;;1.73;1.65;;;23.20;60.00;;;;;;5038261;28;20273;-50
2022/04/12 10:54:47;;;;;;;1.88;1.77;;;22.60;60.10;;;;;;5030194;28;20226;-59
2022/04/12 10:57:33;;;;;;;3.40;3.08;;;22.30;60.60;;;;;;5036909;28;20276;-51
2022/04/12 11:00:18;;;;;;;2.40;2.20;;;22.40;60.40;;;;;;5032449;28;20195;-57
2022/04/12 11:03:04;;;;;;;1.70;1.60;;;22.70;59.80;;;;;;5039106;28;20330;-60
2022/04/12 11:05:54;;;;;;;1.98;1.88;;;22.30;60.00;;;;;;5026514;28;20202;-51
2022/04/12 11:08:38;;;;;;;2.92;2.17;;;22.70;60.00;;;;;;5034148;28;20215;-58
2022/04/12 11:11:27;;;;;;;2.35;2.13;;;22.90;58.60;;;;;;5036852;28;20259;-54
2022/04/12 11:14:22;;;;;;;1.90;1.80;;;23.50;59.10;;;;;;5033532;28;20210;-53
2022/04/12 11:17:10;;;;;;;2.40;2.20;;;24.40;55.70;;;;;;5034630;28;20218;-57
2022/04/12 11:20:01;;;;;;;2.05;1.95;;;24.10;56.40;;;;;;5032850;28;20246;-58
2022/04/12 11:22:56;;;;;;;1.90;1.80;;;25.20;55.10;;;;;;5031230;28;20233;-56
2022/04/12 11:25:48;;;;;;;6.47;5.07;;;24.90;55.60;;;;;;5028651;28;20297;-53
2022/04/12 11:29:15;;;;;;;2.80;2.60;;;24.80;54.50;;;;;;5024057;28;20202;-62
2022/04/12 11:32:01;;;;;;;2.55;2.40;;;24.40;55.00;;;;;;5042696;28;20225;-54
2022/04/12 11:34:46;;;;;;;1.73;1.60;;;25.20;54.40;;;;;;5020414;28;20242;-52
2022/04/12 11:37:31;;;;;;;2.83;1.67;;;25.50;52.10;;;;;;5032845;28;20339;-47
2022/04/12 11:40:15;;;;;;;3.17;2.38;;;26.20;50.50;;;;;;5031051;28;20721;-52
2022/04/12 11:43:00;;;;;;;2.67;2.20;;;25.50;50.70;;;;;;5033072;28;20199;-51
2022/04/12 11:45:44;;;;;;;1.30;1.30;;;26.70;50.20;;;;;;5035118;28;20206;-54
2022/04/12 11:48:31;;;;;;;1.67;1.67;;;26.60;49.50;;;;;;5032368;28;20194;-54
2022/04/12 11:51:17;;;;;;;1.83;1.42;;;27.50;47.20;;;;;;5039433;28;20272;-52
2022/04/12 11:54:17;;;;;;;2.33;2.20;;;26.30;47.90;;;;;;5040051;28;20233;-64
2022/04/12 11:57:02;;;;;;;1.88;1.80;;;26.60;46.10;;;;;;5040912;28;20226;-61
2022/04/12 11:59:57;;;;;;;1.58;1.48;;;25.60;47.30;;;;;;5043534;28;20194;-50
2022/04/12 12:02:41;;;;;;;1.40;1.30;;;25.50;46.90;;;;;;5042675;28;20695;-57
2022/04/12 12:05:25;;;;;;;1.23;1.23;;;26.50;46.00;;;;;;5043605;28;20233;-62
2022/04/12 12:08:11;;;;;;;1.38;1.27;;;25.70;46.90;;;;;;5044839;28;20198;-58
2022/04/12 12:10:56;;;;;;;1.40;1.40;;;24.70;47.00;;;;;;5042338;28;20245;-62
2022/04/12 12:13:41;;;;;;;1.20;1.20;;;25.20;47.80;;;;;;5044686;28;20336;-55
2022/04/12 12:16:25;;;;;;;1.00;1.00;;;25.30;47.60;;;;;;5044745;28;20767;-61
2022/04/12 12:19:14;;;;;;;1.83;1.73;;;25.30;46.30;;;;;;5042418;28;20191;-57
2022/04/12 12:22:02;;;;;;;1.85;1.75;;;27.10;45.00;;;;;;5045002;28;20210;-50
2022/04/12 12:24:57;;;;;;;1.25;1.25;;;27.80;44.20;;;;;;5043686;28;20190;-61
2022/04/12 12:27:41;;;;;;;1.65;1.00;;;27.60;43.80;;;;;;5041434;28;20198;-50
2022/04/12 12:30:27;;;;;;;1.00;1.00;;;27.50;44.20;;;;;;5058191;28;20267;-46
2022/04/12 12:33:13;;;;;;;0.95;0.95;;;28.10;42.70;;;;;;5039624;28;20213;-54
2022/04/12 12:35:57;;;;;;;0.82;0.80;;;27.60;43.00;;;;;;5032150;28;20343;-52
2022/04/12 12:38:45;;;;;;;0.90;0.90;;;28.10;41.50;;;;;;5032406;28;20201;-53
2022/04/12 12:41:32;;;;;;;1.00;1.00;;;27.80;44.10;;;;;;5028789;28;20202;-57
2022/04/12 12:44:17;;;;;;;1.02;0.80;;;28.80;42.40;;;;;;5027844;28;20251;-43
2022/04/12 12:47:04;;;;;;;1.20;1.20;;;28.10;41.20;;;;;;5033358;28;20756;-60
2022/04/12 12:49:50;;;;;;;1.05;1.05;;;25.80;40.80;;;;;;5024877;28;20194;-50
2022/04/12 12:52:34;;;;;;;1.42;1.33;;;25.00;41.70;;;;;;5033320;28;20241;-53
2022/04/12 12:55:23;;;;;;;1.13;1.13;;;25.90;41.80;;;;;;5028774;28;20262;-49
2022/04/12 12:58:12;;;;;;;1.30;1.30;;;27.30;41.60;;;;;;5031039;28;20245;-41
2022/04/12 13:01:06;;;;;;;1.40;1.40;;;28.00;40.70;;;;;;5028258;28;20205;-59
2022/04/12 13:03:55;;;;;;;0.90;0.90;;;28.70;38.90;;;;;;5030414;28;20210;-62
2022/04/12 13:06:39;;;;;;;0.85;0.85;;;28.10;40.00;;;;;;5039061;28;20202;-57
2022/04/12 13:09:23;;;;;;;0.80;0.80;;;27.70;39.90;;;;;;5031413;28;20191;-45
2022/04/12 13:12:09;;;;;;;0.70;0.70;;;27.50;39.30;;;;;;5026505;28;20186;-46
2022/04/12 13:14:54;;;;;;;0.85;0.85;;;27.90;40.30;;;;;;5023528;28;20273;-49
2022/04/12 13:17:39;;;;;;;3.20;2.60;;;29.50;38.50;;;;;;5026941;28;20199;-50
2022/04/12 13:20:23;;;;;;;1.00;1.00;;;29.60;38.40;;;;;;5029479;28;20199;-56
2022/04/12 13:23:08;;;;;;;1.50;0.88;;;30.30;37.60;;;;;;5033976;28;20209;-62
2022/04/12 13:25:52;;;;;;;0.90;0.90;;;29.70;37.00;;;;;;5027289;28;20305;-45
2022/04/12 13:28:36;;;;;;;0.82;0.82;;;31.40;36.50;;;;;;5023930;28;20201;-63
2022/04/12 13:31:21;;;;;;;0.80;0.80;;;30.80;34.60;;;;;;5031770;28;20233;-52
2022/04/12 13:34:05;;;;;;;0.80;0.80;;;29.70;35.70;;;;;;5044063;28;20249;-58
2022/04/12 13:36:50;;;;;;;0.70;0.70;;;30.30;35.50;;;;;;5032536;28;20241;-43
2022/04/12 13:39:34;;;;;;;1.15;1.10;;;29.90;37.40;;;;;;5037108;28;20210;-54
2022/04/12 13:42:19;;;;;;;1.75;0.80;;;30.00;36.30;;;;;;5036029;28;20191;-54
2022/04/12 13:45:04;;;;;;;0.95;0.90;;;30.10;35.90;;;;;;5035973;28;20259;-53
2022/04/12 13:47:49;;;;;;;0.90;0.65;;;29.80;36.20;;;;;;5034704;28;20186;-53
2022/04/12 13:50:33;;;;;;;1.00;1.00;;;31.00;35.80;;;;;;5029646;28;20229;-55
2022/04/12 13:53:17;;;;;;;0.90;0.90;;;30.50;34.90;;;;;;5041937;28;20310;-46
2022/04/12 13:56:01;;;;;;;1.45;0.98;;;31.70;35.80;;;;;;5037457;28;20234;-54
2022/04/12 13:58:45;;;;;;;0.90;0.90;;;29.20;36.50;;;;;;5036207;28;20308;-51
2022/04/12 14:01:30;;;;;;;0.93;0.88;;;30.80;36.00;;;;;;5035200;28;20241;-63
2022/04/12 14:04:14;;;;;;;2.55;0.90;;;31.70;35.90;;;;;;5030152;28;20198;-47
2022/04/12 14:06:58;;;;;;;2.85;1.05;;;31.10;34.90;;;;;;5042120;28;20214;-50
2022/04/12 14:09:43;;;;;;;0.90;0.70;;;31.30;34.10;;;;;;5044532;28;20190;-48
2022/04/12 14:12:28;;;;;;;1.00;1.00;;;31.70;34.80;;;;;;5045051;28;20232;-49
2022/04/12 14:15:13;;;;;;;2.00;1.05;;;32.40;34.10;;;;;;5043490;28;20252;-51
2022/04/12 14:17:58;;;;;;;0.80;0.73;;;31.90;33.30;;;;;;5045833;28;20197;-58
2022/04/12 14:20:42;;;;;;;1.10;1.10;;;31.10;34.90;;;;;;5044473;28;20245;-45
2022/04/12 14:23:27;;;;;;;1.00;1.00;;;30.80;35.00;;;;;;5045893;28;20206;-44
2022/04/12 14:26:12;;;;;;;0.80;0.80;;;29.90;35.50;;;;;;5046796;28;20206;-47
2022/04/12 14:28:56;;;;;;;1.08;0.80;;;30.80;35.60;;;;;;5044239;28;20194;-44
2022/04/12 14:31:42;;;;;;;0.70;0.70;;;30.80;35.10;;;;;;5047120;28;20206;-53